Time;durP1;ratioP1;P1;durP2;ratioP2;P2;SDS_P1;SDS_P2;PMS_P1;PMS_P2;Temp;Humidity;BMP_temperature;BMP_pressure;BME280_temperature;BME280_humidity;BME280_pressure;Samples;Min_cycle;Max_cycle;Signal;HPM_P1;HPM_P2
2022/11/17 00:03:50;;;;;;;2.77;0.90;;;;;;;9.29;59.50;98306.44;10204164;29;20207;-87
2022/11/17 00:09:16;;;;;;;4.07;1.23;;;;;;;9.35;58.93;98296.53;10191159;29;20255;-79
2022/11/17 00:14:40;;;;;;;4.07;0.90;;;;;;;8.81;61.18;98291.97;10216048;29;20231;-79
2022/11/17 00:25:43;;;;;;;4.67;1.07;;;;;;;9.08;61.72;98276.81;10204652;29;20207;-79
2022/11/17 00:36:53;;;;;;;3.50;0.83;;;;;;;8.81;65.07;98244.22;10209201;29;20205;-86
2022/11/17 00:42:15;;;;;;;4.93;1.20;;;;;;;8.27;68.27;98224.75;10207617;29;20204;-85
2022/11/17 00:47:37;;;;;;;2.80;1.13;;;;;;;8.10;69.95;98211.97;10215260;29;20204;-89
2022/11/17 00:53:00;;;;;;;3.03;1.20;;;;;;;8.55;67.22;98182.34;10197545;29;20204;-90
2022/11/17 00:58:22;;;;;;;2.90;1.13;;;;;;;8.39;67.08;98171.25;10194971;29;20196;-89
2022/11/17 01:03:46;;;;;;;2.90;0.97;;;;;;;8.50;67.35;98163.00;10217349;29;20227;-86
2022/11/17 01:09:16;;;;;;;1.83;0.83;;;;;;;8.62;67.06;98152.41;10222095;29;20603;-86
2022/11/17 01:14:38;;;;;;;1.40;0.90;;;;;;;8.88;65.38;98129.16;10200806;29;20589;-85
2022/11/17 01:20:00;;;;;;;2.30;0.80;;;;;;;9.06;65.18;98110.56;10220344;29;20247;-85
2022/11/17 01:25:22;;;;;;;4.93;1.17;;;;;;;9.14;63.59;98112.28;10226212;29;20341;-85
2022/11/17 01:30:44;;;;;;;1.50;0.77;;;;;;;8.43;66.15;98125.22;10206279;29;20219;-84
2022/11/17 01:36:11;;;;;;;5.60;0.97;;;;;;;8.83;63.11;98109.84;10208539;29;20236;-85
2022/11/17 01:41:33;;;;;;;3.13;1.00;;;;;;;8.74;65.68;98100.88;10194930;29;20200;-87
2022/11/17 01:46:55;;;;;;;3.60;0.90;;;;;;;8.97;64.97;98086.75;10206164;29;20204;-90
2022/11/17 01:52:17;;;;;;;2.30;0.70;;;;;;;8.68;66.51;98074.28;10164737;29;20240;-89
2022/11/17 01:57:44;;;;;;;3.77;1.10;;;;;;;8.27;68.53;98059.97;10205337;29;20540;-92
2022/11/17 02:03:08;;;;;;;3.57;0.63;;;;;;;8.19;69.65;98063.84;10160194;29;20212;-92
2022/11/17 02:08:32;;;;;;;3.87;0.67;;;;;;;8.00;69.60;98047.06;10187582;29;20193;-88
2022/11/17 02:13:55;;;;;;;2.73;0.90;;;;;;;8.39;68.91;98045.75;10186993;29;20259;-87
2022/11/17 02:19:19;;;;;;;2.47;0.60;;;;;;;7.92;71.67;98026.53;10206398;29;20789;-88
2022/11/17 02:25:06;;;;;;;4.07;0.93;;;;;;;8.35;70.51;98011.22;10179560;29;20197;-89
2022/11/17 02:30:36;;;;;;;1.70;0.40;;;;;;;8.23;70.95;98002.97;10215677;29;20216;-91
2022/11/17 02:36:05;;;;;;;3.10;0.73;;;;;;;7.84;71.51;97991.09;10189666;29;20201;-90
2022/11/17 02:41:49;;;;;;;1.30;0.70;;;;;;;8.05;70.92;97985.06;10181740;29;20309;-93
2022/11/17 02:47:16;;;;;;;3.93;0.50;;;;;;;7.59;73.03;97973.03;10200191;29;20655;-94
2022/11/17 02:52:42;;;;;;;1.90;0.40;;;;;;;8.28;70.87;97960.56;10196607;29;20291;-92
2022/11/17 02:58:11;;;;;;;1.53;0.40;;;;;;;7.57;72.79;97959.41;10189850;29;20180;-92
2022/11/17 03:04:01;;;;;;;1.43;0.50;;;;;;;7.67;73.14;97950.38;10195865;29;20192;-93
2022/11/17 03:09:37;;;;;;;3.00;0.47;;;;;;;7.83;72.20;97938.22;10222678;29;20204;-93
2022/11/17 03:15:21;;;;;;;1.33;0.40;;;;;;;7.33;74.18;97926.91;10185309;29;20240;-95
2022/11/17 03:21:05;;;;;;;0.97;0.30;;;;;;;7.57;73.38;97916.56;10211155;29;20199;-94
2022/11/17 03:26:31;;;;;;;1.10;0.30;;;;;;;7.50;72.94;97917.19;10199753;29;20266;-93
2022/11/17 03:31:57;;;;;;;0.80;0.40;;;;;;;7.58;73.49;97910.56;10217031;29;20208;-93
2022/11/17 03:37:20;;;;;;;0.73;0.40;;;;;;;7.96;72.60;97897.56;10196653;29;20216;-88
2022/11/17 03:42:51;;;;;;;1.53;0.20;;;;;;;7.13;73.81;97886.13;10202906;29;20193;-90
2022/11/17 03:48:21;;;;;;;1.17;0.20;;;;;;;7.57;72.61;97886.53;10218137;29;20191;-90
2022/11/17 03:53:43;;;;;;;0.87;0.20;;;;;;;7.50;73.28;97889.16;10231820;29;20226;-90
2022/11/17 03:59:08;;;;;;;1.63;0.33;;;;;;;7.76;72.49;97877.22;10205832;29;20595;-89
2022/11/17 04:05:04;;;;;;;0.67;0.20;;;;;;;7.44;74.13;97876.69;10205664;29;20220;-92
2022/11/17 04:10:18;;;;;;;0.43;0.20;;;;;;;7.35;73.45;97876.09;10187499;29;20220;-89
2022/11/17 04:15:55;;;;;;;1.60;0.40;;;;;;;7.24;74.88;97861.09;10180172;29;20708;-87
2022/11/17 04:21:19;;;;;;;0.53;0.20;;;;;;;7.00;74.50;97879.88;10200565;29;20195;-86
2022/11/17 04:32:21;;;;;;;1.57;0.50;;;;;;;7.42;74.32;97853.81;10201937;29;20220;-88
2022/11/17 04:37:43;;;;;;;1.93;0.27;;;;;;;7.12;74.70;97853.69;10191620;29;20204;-86
2022/11/17 04:43:08;;;;;;;0.93;0.30;;;;;;;7.36;74.34;97841.28;10198980;29;20208;-86
2022/11/17 04:48:30;;;;;;;0.90;0.30;;;;;;;7.91;72.21;97833.38;10192482;29;20924;-86
2022/11/17 04:53:53;;;;;;;0.83;0.27;;;;;;;7.81;71.82;97828.41;10201410;29;20215;-84
2022/11/17 04:59:15;;;;;;;1.90;0.37;;;;;;;7.55;72.70;97832.84;10189073;29;20228;-85
2022/11/17 05:04:59;;;;;;;0.70;0.30;;;;;;;7.57;71.73;97835.28;10190599;29;20271;-84
2022/11/17 05:13:20;;;;;;;1.23;0.20;;;;;;;7.59;71.50;97833.69;10177474;29;20310;-85
2022/11/17 05:21:43;;;;;;;0.73;0.30;;;;;;;7.62;70.58;97804.91;10200184;29;20248;-84
2022/11/17 05:27:05;;;;;;;1.03;0.27;;;;;;;7.43;70.45;97812.59;10200924;29;20470;-85
2022/11/17 05:32:27;;;;;;;0.40;0.37;;;;;;;7.22;70.86;97799.03;10201056;29;20263;-84
2022/11/17 05:37:49;;;;;;;1.20;0.27;;;;;;;7.63;68.80;97784.09;10176508;29;20211;-82
2022/11/17 05:43:11;;;;;;;0.97;0.20;;;;;;;7.38;69.95;97788.50;10204681;29;20247;-84
2022/11/17 05:48:33;;;;;;;3.30;0.30;;;;;;;7.50;68.84;97787.47;10199066;29;21016;-84
2022/11/17 05:53:55;;;;;;;1.80;0.40;;;;;;;7.82;67.98;97773.97;10211291;29;20286;-84
2022/11/17 05:59:22;;;;;;;0.90;0.30;;;;;;;8.02;67.53;97772.63;10213025;29;20195;-84
2022/11/17 15:45:23;;;;;;;2.63;0.43;;;;;;;8.94;57.54;98164.19;12149529;23;20231;-83
2022/11/17 15:50:45;;;;;;;1.87;0.40;;;;;;;9.11;57.37;98166.47;10152136;29;20386;-81
2022/11/17 15:56:10;;;;;;;3.57;0.50;;;;;;;8.99;57.54;98168.69;10169818;29;20299;-79
2022/11/17 16:01:36;;;;;;;3.77;0.40;;;;;;;9.21;56.50;98172.63;10165177;29;20220;-80
2022/11/17 16:06:59;;;;;;;2.80;0.80;;;;;;;9.21;57.37;98176.25;10152632;29;20227;-81
2022/11/17 16:12:21;;;;;;;4.67;0.53;;;;;;;9.61;56.38;98183.22;10156983;29;20264;-81
2022/11/17 16:17:43;;;;;;;1.67;0.73;;;;;;;9.74;55.37;98177.00;10149667;29;20228;-84
2022/11/17 16:23:05;;;;;;;1.33;0.60;;;;;;;9.35;56.72;98181.25;10143213;29;20236;-83
2022/11/17 16:28:27;;;;;;;0.50;0.30;;;;;;;9.24;57.69;98192.34;10167028;29;20232;-84
2022/11/17 16:33:52;;;;;;;2.60;0.70;;;;;;;9.30;57.63;98190.00;10162014;29;20652;-85
2022/11/17 16:39:15;;;;;;;0.93;0.30;;;;;;;9.10;58.09;98204.19;10119573;29;20236;-83
2022/11/17 16:44:37;;;;;;;2.23;0.83;;;;;;;9.44;56.73;98213.53;10154958;29;20272;-81
2022/11/17 16:49:59;;;;;;;4.53;1.00;;;;;;;9.04;60.84;98228.16;10112686;29;20267;-83
2022/11/17 16:55:21;;;;;;;5.93;1.13;;;;;;;9.07;63.83;98212.56;10107650;29;20278;-86
2022/11/17 17:00:43;;;;;;;2.17;0.90;;;;;;;8.45;68.04;98209.06;10106998;29;20476;-85
2022/11/17 17:06:08;;;;;;;3.13;0.50;;;;;;;8.88;66.15;98205.00;10127865;29;20265;-84
2022/11/17 17:11:31;;;;;;;1.53;0.50;;;;;;;8.42;67.08;98205.00;10129879;29;20236;-85
2022/11/17 17:16:53;;;;;;;2.77;0.80;;;;;;;8.33;65.37;98210.03;10104696;29;20313;-83
2022/11/17 17:22:15;;;;;;;4.07;1.20;;;;;;;8.59;65.13;98222.53;10123886;29;20220;-83
2022/11/17 17:27:38;;;;;;;4.97;1.70;;;;;;;8.44;64.83;98227.09;10114447;29;20240;-82
2022/11/17 17:33:00;;;;;;;3.43;1.00;;;;;;;8.44;64.86;98229.88;10132872;29;20253;-85
2022/11/17 17:38:25;;;;;;;4.70;1.33;;;;;;;8.21;65.37;98229.84;10134012;29;20278;-85
2022/11/17 17:43:53;;;;;;;3.63;1.30;;;;;;;8.34;64.72;98228.50;10134034;29;20289;-82
2022/11/17 17:49:17;;;;;;;2.63;0.97;;;;;;;8.39;64.47;98236.59;10122074;29;20264;-82
2022/11/17 17:54:39;;;;;;;2.40;1.07;;;;;;;8.60;62.95;98235.41;10120491;29;20264;-84
2022/11/17 18:00:03;;;;;;;3.80;1.13;;;;;;;8.32;63.72;98244.91;10134275;29;20273;-84
2022/11/17 18:05:26;;;;;;;3.57;1.00;;;;;;;8.18;64.12;98247.44;10115849;29;20694;-83
2022/11/17 18:10:48;;;;;;;2.83;0.80;;;;;;;8.65;62.22;98251.94;10118059;29;20281;-80
2022/11/17 18:16:18;;;;;;;3.67;0.80;;;;;;;8.60;62.03;98253.06;10110663;29;20297;-82
2022/11/17 18:21:40;;;;;;;1.97;0.60;;;;;;;8.63;61.82;98262.75;10119708;29;20673;-83
2022/11/17 18:27:02;;;;;;;2.57;0.80;;;;;;;8.55;61.99;98261.78;10119231;29;20694;-82
2022/11/17 18:32:24;;;;;;;2.63;1.30;;;;;;;8.63;61.39;98268.34;10105097;29;20249;-83
2022/11/17 18:37:47;;;;;;;1.77;0.60;;;;;;;8.43;62.27;98279.59;10117986;29;20300;-83
2022/11/17 18:43:10;;;;;;;4.40;0.90;;;;;;;8.34;63.16;98281.03;10130910;29;20228;-83
2022/11/17 18:48:34;;;;;;;4.90;1.13;;;;;;;8.76;60.98;98289.47;10125055;29;20327;-82
2022/11/17 18:53:57;;;;;;;3.10;0.87;;;;;;;8.03;62.40;98296.00;10123017;29;20336;-83
2022/11/17 18:59:20;;;;;;;3.90;1.13;;;;;;;8.27;62.16;98304.13;10103910;29;20233;-82
2022/11/17 19:04:42;;;;;;;2.17;0.90;;;;;;;8.05;62.88;98316.09;10099765;29;20220;-81
2022/11/17 19:10:05;;;;;;;2.37;1.00;;;;;;;8.05;62.57;98304.88;10100779;29;20779;-82
2022/11/17 19:15:27;;;;;;;3.27;0.70;;;;;;;7.85;63.20;98314.44;10099574;29;20308;-82
2022/11/17 19:20:49;;;;;;;4.80;1.13;;;;;;;8.00;63.10;98324.78;10129212;29;20273;-81
2022/11/17 19:26:13;;;;;;;2.37;1.00;;;;;;;7.69;63.49;98331.31;10124585;29;20289;-83
2022/11/17 19:31:36;;;;;;;1.77;0.63;;;;;;;7.72;63.88;98328.59;10117690;29;20590;-83
2022/11/17 19:36:59;;;;;;;1.57;0.80;;;;;;;7.38;65.16;98340.56;10123865;29;20264;-83
2022/11/17 19:42:21;;;;;;;2.23;0.97;;;;;;;7.58;64.20;98358.31;10115537;29;20232;-84
2022/11/17 19:47:43;;;;;;;2.17;0.80;;;;;;;7.53;64.66;98359.34;10119090;29;20272;-84
2022/11/17 19:53:05;;;;;;;4.33;1.10;;;;;;;7.62;64.24;98360.00;10113057;29;20646;-84
2022/11/17 19:58:27;;;;;;;3.23;1.03;;;;;;;7.33;64.57;98371.63;10110934;29;21127;-85
2022/11/17 20:03:49;;;;;;;3.50;0.70;;;;;;;7.60;64.63;98373.56;10115164;29;20244;-82
2022/11/17 20:09:12;;;;;;;2.40;1.23;;;;;;;7.47;64.89;98374.81;10113893;29;20232;-84
2022/11/17 20:14:35;;;;;;;3.50;0.67;;;;;;;7.49;64.34;98380.88;10117720;29;20634;-82
2022/11/17 20:19:57;;;;;;;1.47;0.80;;;;;;;7.81;64.07;98373.28;10110431;29;20585;-84
2022/11/17 20:25:19;;;;;;;3.00;1.10;;;;;;;7.45;64.66;98384.78;10093496;29;20536;-82
2022/11/17 20:30:42;;;;;;;3.07;1.00;;;;;;;7.63;63.93;98395.25;10074358;29;20264;-84
2022/11/17 20:36:05;;;;;;;3.67;0.90;;;;;;;7.57;64.90;98398.72;10106240;29;20296;-84
2022/11/17 20:41:27;;;;;;;3.97;0.90;;;;;;;7.91;63.61;98405.53;10116027;29;20237;-85
2022/11/17 20:46:51;;;;;;;3.57;1.70;;;;;;;7.66;64.45;98411.38;10113902;29;20729;-83
2022/11/17 20:52:13;;;;;;;3.80;1.60;;;;;;;7.70;64.10;98412.28;10126297;29;20229;-85
2022/11/17 20:57:36;;;;;;;3.73;1.80;;;;;;;7.66;64.20;98419.78;10122010;29;20287;-84
2022/11/17 21:03:04;;;;;;;6.93;2.47;;;;;;;7.47;64.35;98422.44;10142702;29;20629;-84
2022/11/17 21:08:32;;;;;;;7.33;3.17;;;;;;;7.78;64.43;98426.47;10122990;29;20220;-84
2022/11/17 21:14:04;;;;;;;3.80;2.13;;;;;;;7.94;63.43;98432.88;10131233;29;20216;-84
2022/11/17 21:19:30;;;;;;;4.40;2.40;;;;;;;7.65;64.13;98434.97;10108916;29;20543;-84
2022/11/17 21:24:52;;;;;;;6.27;2.30;;;;;;;7.69;64.04;98449.91;10119647;29;20297;-84
2022/11/17 21:30:14;;;;;;;5.23;2.27;;;;;;;7.81;63.47;98450.97;10119197;29;20208;-84
2022/11/17 21:35:36;;;;;;;5.93;3.07;;;;;;;7.34;64.92;98454.53;10127975;29;20260;-84
2022/11/17 21:41:06;;;;;;;4.30;1.57;;;;;;;7.45;64.50;98452.03;10121151;29;20643;-83
2022/11/17 21:46:30;;;;;;;4.63;2.33;;;;;;;7.41;64.55;98465.13;10110522;29;20225;-81
2022/11/17 21:51:52;;;;;;;4.13;2.20;;;;;;;7.59;63.90;98467.25;10126730;29;20229;-82
2022/11/17 21:57:14;;;;;;;6.53;2.53;;;;;;;8.02;62.34;98468.31;10122185;29;20245;-85
2022/11/17 22:02:36;;;;;;;3.40;1.90;;;;;;;7.82;63.16;98480.66;10104202;29;20685;-83
2022/11/17 22:07:58;;;;;;;3.47;1.50;;;;;;;7.60;63.74;98482.09;10133658;29;20240;-84
2022/11/17 22:13:21;;;;;;;3.67;1.10;;;;;;;7.81;62.75;98487.44;10118828;29;20288;-84
2022/11/17 22:18:43;;;;;;;2.93;1.67;;;;;;;7.71;63.25;98491.59;10130054;29;20234;-82
2022/11/17 22:24:06;;;;;;;3.93;1.20;;;;;;;7.49;64.04;98498.59;10119737;29;20228;-85
2022/11/17 22:29:28;;;;;;;4.17;1.33;;;;;;;7.71;63.46;98498.00;10098306;29;20296;-82
2022/11/17 22:34:51;;;;;;;2.77;0.97;;;;;;;7.99;62.81;98497.09;10125794;29;20571;-82
2022/11/17 22:40:13;;;;;;;4.63;1.50;;;;;;;7.90;62.65;98507.69;10114851;29;20255;-82
2022/11/17 22:45:38;;;;;;;2.73;0.87;;;;;;;7.91;61.90;98512.13;10119313;29;20221;-82
2022/11/17 22:51:01;;;;;;;2.67;1.27;;;;;;;7.92;62.63;98513.75;10129394;29;20240;-84
2022/11/17 22:56:23;;;;;;;2.37;1.00;;;;;;;7.92;62.39;98500.56;10118588;29;20252;-82
2022/11/17 23:01:45;;;;;;;4.27;0.90;;;;;;;7.81;62.09;98512.69;10117010;29;20280;-82
2022/11/17 23:07:07;;;;;;;2.83;0.90;;;;;;;7.57;63.10;98514.47;10131054;29;20229;-82
2022/11/17 23:12:29;;;;;;;3.87;1.53;;;;;;;7.51;63.75;98520.66;10115470;29;20229;-82
2022/11/17 23:17:51;;;;;;;2.93;1.03;;;;;;;7.72;63.24;98524.88;10114808;29;20213;-82
2022/11/17 23:23:13;;;;;;;3.80;1.60;;;;;;;7.39;64.08;98538.38;10117515;29;20301;-83
2022/11/17 23:28:36;;;;;;;3.37;1.10;;;;;;;7.28;64.77;98546.47;10130634;29;20705;-83
2022/11/17 23:33:58;;;;;;;4.40;1.33;;;;;;;7.24;64.70;98550.34;10114440;29;20264;-82
2022/11/17 23:39:21;;;;;;;2.53;1.20;;;;;;;7.20;64.72;98557.81;10118890;29;20205;-83
2022/11/17 23:44:43;;;;;;;2.13;0.73;;;;;;;7.08;65.46;98563.47;10132409;29;20510;-83
2022/11/17 23:50:05;;;;;;;3.47;0.77;;;;;;;7.17;64.47;98566.97;10093967;29;20228;-81
2022/11/17 23:55:27;;;;;;;2.40;1.30;;;;;;;7.38;64.05;98574.00;10137150;29;20221;-82
